createdAt,value
2023-04-28T00:00:10.185Z,44.68
2023-04-28T00:02:36.979Z,44.41
2023-04-28T00:05:03.849Z,44.85
2023-04-28T00:07:32.803Z,45.28
2023-04-28T00:10:02.343Z,44.84
2023-04-28T00:12:29.346Z,45.04
2023-04-28T00:14:56.414Z,45.04
2023-04-28T00:17:23.185Z,44.95
2023-04-28T00:19:50.662Z,44.85
2023-04-28T00:22:17.297Z,45.34
2023-04-28T00:24:46.479Z,45.27
2023-04-28T00:27:13.134Z,45.30
2023-04-28T00:29:39.726Z,45.15
2023-04-28T00:32:08.765Z,46.40
2023-04-28T00:34:37.503Z,45.91
2023-04-28T00:37:04.707Z,46.46
2023-04-28T00:39:31.444Z,45.89
2023-04-28T00:41:58.047Z,46.15
2023-04-28T00:44:24.696Z,46.11
2023-04-28T00:46:54.197Z,46.06
2023-04-28T00:49:22.911Z,46.66
2023-04-28T00:51:49.655Z,46.02
2023-04-28T00:54:18.966Z,46.56
2023-04-28T00:56:50.716Z,46.30
2023-04-28T00:59:17.921Z,47.21
2023-04-28T01:01:44.667Z,46.93
2023-04-28T01:04:11.556Z,48.75
2023-04-28T01:06:41.127Z,47.74
2023-04-28T01:09:10.372Z,47.50
2023-04-28T01:11:37.579Z,47.07
2023-04-28T01:14:09.449Z,47.49
2023-04-28T01:16:40.049Z,47.15
2023-04-28T01:19:12.962Z,47.33
2023-04-28T01:21:39.739Z,47.07
2023-04-28T01:24:21.677Z,47.08
2023-04-28T01:26:48.272Z,47.11
2023-04-28T01:29:15.185Z,48.07
2023-04-28T01:31:42.270Z,48.57
2023-04-28T01:34:08.865Z,47.96
2023-04-28T01:36:38.091Z,47.67
2023-04-28T01:39:05.121Z,47.96
2023-04-28T01:41:36.996Z,47.89
2023-04-28T01:44:05.382Z,48.44
2023-04-28T01:46:32.099Z,48.69
2023-04-28T01:49:01.289Z,48.39
2023-04-28T01:51:29.961Z,48.19
2023-04-28T01:54:02.146Z,48.61
2023-04-28T01:56:33.438Z,48.74
2023-04-28T01:59:01.014Z,48.50
2023-04-28T02:01:27.620Z,49.02
2023-04-28T02:03:56.078Z,48.85
2023-04-28T02:06:28.745Z,49.44
2023-04-28T02:08:57.017Z,49.24
2023-04-28T02:11:24.054Z,49.20
2023-04-28T02:13:56.157Z,49.59
2023-04-28T02:16:25.658Z,49.76
2023-04-28T02:18:52.330Z,50.05
2023-04-28T02:21:19.071Z,49.84
2023-04-28T02:23:46.209Z,50.15
2023-04-28T02:26:15.412Z,50.06
2023-04-28T02:28:42.501Z,49.72
2023-04-28T02:31:09.842Z,49.85
2023-04-28T02:33:42.342Z,50.11
2023-04-28T02:36:09.290Z,50.67
2023-04-28T02:38:36.132Z,50.64
2023-04-28T02:41:06.595Z,50.58
2023-04-28T02:43:35.989Z,50.43
2023-04-28T02:46:05.746Z,50.74
2023-04-28T02:48:34.307Z,50.48
2023-04-28T02:51:03.361Z,50.91
2023-04-28T02:53:30.991Z,50.88
2023-04-28T02:55:58.026Z,50.97
2023-04-28T02:58:25.825Z,51.35
2023-04-28T03:00:54.932Z,51.83
2023-04-28T03:03:21.731Z,51.08
2023-04-28T03:05:48.472Z,51.13
2023-04-28T03:08:16.431Z,51.04
2023-04-28T03:10:43.065Z,50.83
2023-04-28T03:13:09.725Z,50.81
2023-04-28T03:15:36.826Z,51.76
2023-04-28T03:18:03.598Z,51.96
2023-04-28T03:20:30.286Z,52.51
2023-04-28T03:22:57.354Z,52.25
2023-04-28T03:25:26.387Z,52.46
2023-04-28T03:27:56.054Z,52.74
2023-04-28T03:30:25.698Z,52.45
2023-04-28T03:32:52.433Z,52.29
2023-04-28T03:35:19.335Z,52.54
2023-04-28T03:37:45.995Z,52.92
2023-04-28T03:40:15.671Z,52.34
2023-04-28T03:43:09.246Z,52.37
2023-04-28T03:45:41.163Z,52.13
2023-04-28T03:48:09.428Z,51.90
2023-04-28T03:50:36.862Z,51.94
2023-04-28T03:53:06.272Z,51.65
2023-04-28T03:55:37.675Z,52.14
2023-04-28T03:58:04.592Z,51.68
2023-04-28T04:00:36.362Z,51.55
2023-04-28T04:03:12.503Z,50.97
2023-04-28T04:05:43.173Z,50.59
2023-04-28T04:08:11.393Z,50.46
2023-04-28T04:10:41.314Z,49.97
2023-04-28T04:13:11.023Z,49.96
2023-04-28T04:15:37.711Z,49.78
2023-04-28T04:18:04.884Z,50.48
2023-04-28T04:20:52.157Z,50.08
2023-04-28T04:23:25.573Z,50.31
2023-04-28T04:25:53.207Z,50.41
2023-04-28T04:28:20.248Z,50.50
2023-04-28T04:30:48.578Z,50.58
2023-04-28T04:33:29.187Z,50.56
2023-04-28T04:35:57.226Z,50.55
2023-04-28T04:38:26.134Z,50.67
2023-04-28T04:40:56.644Z,51.01
2023-04-28T04:43:23.670Z,51.77
2023-04-28T04:45:50.840Z,51.79
2023-04-28T04:48:20.195Z,51.98
2023-04-28T04:50:47.253Z,52.08
2023-04-28T04:53:16.696Z,51.73
2023-04-28T04:55:46.983Z,51.58
2023-04-28T04:58:15.221Z,51.73
2023-04-28T05:00:44.833Z,51.29
2023-04-28T05:03:12.637Z,51.10
2023-04-28T05:05:41.063Z,51.12
2023-04-28T05:08:13.086Z,50.80
2023-04-28T05:10:40.777Z,50.34
2023-04-28T05:13:07.496Z,50.01
2023-04-28T05:15:34.389Z,49.85
2023-04-28T05:18:30.488Z,49.26
2023-04-28T05:21:02.496Z,49.18
2023-04-28T05:23:29.107Z,49.14
2023-04-28T05:25:55.731Z,48.67
2023-04-28T05:28:22.744Z,48.59
2023-04-28T05:30:52.977Z,48.77
2023-04-28T05:33:22.538Z,48.67
2023-04-28T05:35:51.957Z,48.43
2023-04-28T05:38:18.674Z,48.35
2023-04-28T05:40:47.090Z,48.33
2023-04-28T05:43:14.266Z,48.46
2023-04-28T05:45:44.276Z,47.81
2023-04-28T05:48:11.461Z,47.17
2023-04-28T05:50:40.071Z,46.62
2023-04-28T05:53:07.572Z,46.71
2023-04-28T05:55:36.400Z,46.40
2023-04-28T05:58:03.882Z,46.19
2023-04-28T06:00:30.588Z,45.63
2023-04-28T06:03:02.798Z,45.32
2023-04-28T06:05:33.355Z,45.25
2023-04-28T06:08:03.633Z,44.76
2023-04-28T06:10:31.660Z,44.21
2023-04-28T06:12:58.198Z,43.17
2023-04-28T06:15:24.820Z,42.37
2023-04-28T06:17:51.691Z,41.59
2023-04-28T06:20:18.469Z,42.62
2023-04-28T06:22:45.144Z,42.52
2023-04-28T06:25:14.541Z,42.41
2023-04-28T06:27:49.088Z,41.90
2023-04-28T06:30:19.334Z,41.90
2023-04-28T06:32:48.523Z,41.75
2023-04-28T06:35:16.218Z,41.47
2023-04-28T06:37:45.508Z,41.03
2023-04-28T06:40:14.657Z,40.48
2023-04-28T06:42:47.891Z,40.34
2023-04-28T06:45:20.145Z,40.30
2023-04-28T06:47:47.147Z,39.39
2023-04-28T06:50:18.562Z,40.09
2023-04-28T06:52:45.523Z,39.79
2023-04-28T06:55:15.171Z,39.86
2023-04-28T06:57:42.764Z,39.33
2023-04-28T07:00:12.773Z,39.55
2023-04-28T07:02:39.498Z,39.60
2023-04-28T07:05:08.928Z,39.62
2023-04-28T07:07:36.534Z,39.62
2023-04-28T07:10:03.292Z,39.24
2023-04-28T07:12:29.905Z,39.03
2023-04-28T07:14:56.499Z,39.35
2023-04-28T07:17:28.596Z,39.41
2023-04-28T07:19:55.242Z,39.23
2023-04-28T07:22:24.753Z,39.27
2023-04-28T07:24:51.383Z,38.96
2023-04-28T07:27:18.308Z,38.65
2023-04-28T07:29:44.996Z,38.85
2023-04-28T07:32:11.656Z,38.72
2023-04-28T07:34:40.780Z,37.41
2023-04-28T07:37:07.574Z,37.16
2023-04-28T07:39:35.268Z,37.22
2023-04-28T07:42:03.363Z,38.25
2023-04-28T07:44:30.496Z,37.98
2023-04-28T07:46:59.864Z,36.01
2023-04-28T07:49:27.234Z,36.55
2023-04-28T07:51:55.251Z,37.63
2023-04-28T07:54:21.994Z,36.87
2023-04-28T07:56:51.486Z,37.20
2023-04-28T07:59:18.165Z,37.45
2023-04-28T08:01:44.803Z,37.65
2023-04-28T08:04:12.370Z,37.48
2023-04-28T08:06:40.242Z,36.17
2023-04-28T08:09:07.258Z,36.11
2023-04-28T08:11:34.747Z,36.92
2023-04-28T08:14:03.310Z,36.67
2023-04-28T08:16:31.005Z,37.13
2023-04-28T08:18:58.100Z,37.17
2023-04-28T08:21:24.896Z,36.00
2023-04-28T08:23:51.797Z,35.67
2023-04-28T08:26:20.877Z,36.54
2023-04-28T08:28:47.532Z,33.78
2023-04-28T08:31:16.705Z,33.77
2023-04-28T08:33:48.612Z,33.88
2023-04-28T08:36:15.665Z,33.63
2023-04-28T08:38:44.968Z,34.00
2023-04-28T08:41:15.393Z,34.21
2023-04-28T08:43:43.287Z,35.01
2023-04-28T08:46:10.212Z,34.71
2023-04-28T08:48:41.457Z,31.18
2023-04-28T08:51:08.512Z,32.36
2023-04-28T08:54:06.014Z,30.11
2023-04-28T08:56:27.997Z,30.35
2023-04-28T08:58:57.133Z,31.61
2023-04-28T09:01:23.877Z,30.91
2023-04-28T09:03:54.180Z,29.24
2023-04-28T09:06:22.207Z,29.41
2023-04-28T09:08:49.435Z,30.54
2023-04-28T09:11:16.601Z,28.89
2023-04-28T09:13:43.252Z,28.99
2023-04-28T09:16:12.244Z,29.34
2023-04-28T09:18:41.338Z,28.70
2023-04-28T09:21:10.621Z,29.75
2023-04-28T09:23:48.219Z,29.02
2023-04-28T09:26:17.008Z,28.47
2023-04-28T09:28:46.180Z,29.26
2023-04-28T09:31:25.055Z,28.68
2023-04-28T09:34:00.867Z,29.12
2023-04-28T09:36:30.911Z,29.73
2023-04-28T09:38:58.048Z,28.13
2023-04-28T09:41:37.941Z,28.08
2023-04-28T09:44:19.582Z,29.03
2023-04-28T09:46:48.825Z,28.56
2023-04-28T09:49:17.829Z,27.92
2023-04-28T09:51:44.895Z,29.01
2023-04-28T09:54:11.769Z,29.10
2023-04-28T09:56:40.216Z,28.69
2023-04-28T09:59:07.384Z,29.03
2023-04-28T10:01:38.656Z,28.54
2023-04-28T10:04:06.636Z,28.72
2023-04-28T10:06:37.051Z,29.43
2023-04-28T10:09:06.092Z,29.07
2023-04-28T10:11:34.853Z,27.59
2023-04-28T10:14:01.766Z,27.64
2023-04-28T10:16:31.546Z,28.58
2023-04-28T10:18:58.558Z,28.28
2023-04-28T10:21:25.128Z,28.33
2023-04-28T10:24:00.070Z,28.53
2023-04-28T10:26:32.848Z,27.81
2023-04-28T10:28:59.830Z,28.56
2023-04-28T10:31:26.425Z,28.43
2023-04-28T10:33:53.149Z,26.79
2023-04-28T10:36:40.927Z,27.64
2023-04-28T10:39:12.843Z,26.86
2023-04-28T10:41:39.563Z,26.83
2023-04-28T10:44:24.997Z,25.69
2023-04-28T10:47:04.605Z,25.37
2023-04-28T10:49:51.139Z,25.44
2023-04-28T10:52:33.039Z,26.12
2023-04-28T10:55:22.079Z,26.60
2023-04-28T10:58:06.905Z,26.40
2023-04-28T11:00:33.941Z,25.86
2023-04-28T11:03:00.868Z,26.43
2023-04-28T11:05:28.446Z,26.02
2023-04-28T11:08:13.859Z,25.23
2023-04-28T11:11:02.509Z,24.98
2023-04-28T11:13:33.992Z,26.56
2023-04-28T11:16:03.356Z,25.18
2023-04-28T11:18:30.013Z,26.14
2023-04-28T11:20:57.956Z,26.00
2023-04-28T11:23:25.253Z,25.74
2023-04-28T11:25:58.127Z,26.56
2023-04-28T11:28:27.278Z,27.10
2023-04-28T11:31:01.902Z,26.53
2023-04-28T11:33:31.002Z,27.07
2023-04-28T11:35:57.681Z,27.27
2023-04-28T11:38:26.606Z,27.60
2023-04-28T11:40:59.435Z,28.18
2023-04-28T11:43:43.702Z,28.40
2023-04-28T11:46:17.996Z,27.99
2023-04-28T11:48:44.776Z,27.48
2023-04-28T11:51:27.927Z,28.13
2023-04-28T11:53:55.076Z,28.51
2023-04-28T11:56:21.646Z,28.57
2023-04-28T11:59:00.707Z,28.56
2023-04-28T12:01:28.325Z,28.89
2023-04-28T12:03:57.533Z,28.89
2023-04-28T12:06:24.589Z,28.57
2023-04-28T12:08:54.330Z,28.50
2023-04-28T12:11:22.563Z,27.99
2023-04-28T12:14:08.063Z,28.81
2023-04-28T12:16:39.398Z,29.97
2023-04-28T12:19:10.052Z,29.87
2023-04-28T12:21:40.111Z,29.15
2023-04-28T12:24:36.469Z,29.02
2023-04-28T12:27:16.284Z,29.55
2023-04-28T12:29:46.810Z,29.21
2023-04-28T12:32:13.922Z,29.12
2023-04-28T12:34:41.887Z,29.40
2023-04-28T12:37:08.509Z,28.95
2023-04-28T12:39:41.699Z,29.13
2023-04-28T12:42:13.926Z,29.31
2023-04-28T12:44:40.926Z,28.96
2023-04-28T12:47:11.305Z,29.24
2023-04-28T12:49:38.267Z,28.66
2023-04-28T12:52:05.817Z,28.45
2023-04-28T12:54:35.320Z,28.03
2023-04-28T12:57:03.666Z,27.14
2023-04-28T12:59:30.733Z,26.49
2023-04-28T13:01:57.817Z,27.34
2023-04-28T13:04:27.299Z,27.60
2023-04-28T13:06:54.832Z,26.13
2023-04-28T13:09:23.802Z,26.33
2023-04-28T13:11:50.721Z,26.86
2023-04-28T13:14:17.635Z,27.30
2023-04-28T13:16:44.387Z,27.51
2023-04-28T13:19:13.950Z,28.34
2023-04-28T13:21:42.133Z,29.10
2023-04-28T13:24:09.581Z,28.63
2023-04-28T13:26:42.201Z,28.80
2023-04-28T13:29:12.505Z,28.92
2023-04-28T13:31:39.406Z,29.17
2023-04-28T13:34:06.525Z,29.17
2023-04-28T13:36:36.388Z,29.56
2023-04-28T13:39:06.783Z,28.77
2023-04-28T13:41:33.390Z,28.82
2023-04-28T13:44:00.270Z,28.92
2023-04-28T13:46:29.634Z,28.75
2023-04-28T13:48:56.747Z,28.81
2023-04-28T13:51:24.120Z,28.63
2023-04-28T13:53:51.248Z,28.75
2023-04-28T13:56:20.489Z,28.28
2023-04-28T13:58:47.543Z,28.65
2023-04-28T14:01:14.849Z,28.42
2023-04-28T14:03:42.187Z,27.35
2023-04-28T14:06:09.234Z,27.50
2023-04-28T14:08:36.823Z,26.42
2023-04-28T14:11:06.238Z,26.55
2023-04-28T14:13:33.867Z,26.52
2023-04-28T14:16:01.153Z,27.03
2023-04-28T14:18:33.893Z,27.05
2023-04-28T14:21:02.138Z,27.24
2023-04-28T14:23:29.509Z,27.94
2023-04-28T14:25:58.173Z,28.71
2023-04-28T14:28:27.379Z,28.83
2023-04-28T14:30:56.957Z,29.02
2023-04-28T14:33:26.037Z,29.21
2023-04-28T14:35:55.132Z,29.21
2023-04-28T14:38:24.252Z,29.41
2023-04-28T14:40:53.396Z,28.92
2023-04-28T14:43:22.956Z,28.95
2023-04-28T14:45:52.552Z,29.07
2023-04-28T14:48:24.760Z,28.93
2023-04-28T14:50:55.904Z,29.05
2023-04-28T14:53:25.245Z,29.37
2023-04-28T14:55:52.077Z,29.50
2023-04-28T14:58:21.195Z,29.40
2023-04-28T15:00:50.258Z,29.23
2023-04-28T15:03:17.045Z,29.25
2023-04-28T15:05:48.965Z,29.39
2023-04-28T15:08:19.281Z,29.61
2023-04-28T15:10:50.690Z,29.76
2023-04-28T15:13:17.276Z,30.03
2023-04-28T15:15:46.427Z,29.79
2023-04-28T15:18:16.350Z,30.09
2023-04-28T15:20:43.395Z,30.57
2023-04-28T15:23:10.926Z,30.90
2023-04-28T15:25:39.645Z,30.76
2023-04-28T15:28:10.056Z,30.95
2023-04-28T15:30:44.587Z,30.66
2023-04-28T15:33:17.788Z,31.27
2023-04-28T15:35:47.238Z,30.66
2023-04-28T15:38:18.702Z,30.55
2023-04-28T15:40:49.285Z,31.40
2023-04-28T15:43:16.120Z,31.36
2023-04-28T15:45:47.024Z,31.41
2023-04-28T15:48:16.498Z,31.26
2023-04-28T15:50:47.910Z,31.44
2023-04-28T15:53:15.524Z,31.76
2023-04-28T15:55:46.962Z,31.70
2023-04-28T15:58:16.923Z,32.17
2023-04-28T16:00:45.893Z,32.19
2023-04-28T16:03:12.748Z,32.74
2023-04-28T16:05:39.666Z,32.63
2023-04-28T16:08:11.156Z,32.37
2023-04-28T16:10:41.370Z,32.60
2023-04-28T16:13:11.806Z,32.71
2023-04-28T16:15:38.967Z,32.80
2023-04-28T16:18:05.686Z,33.09
2023-04-28T16:20:33.735Z,33.57
2023-04-28T16:23:03.654Z,33.46
2023-04-28T16:25:35.372Z,33.25
2023-04-28T16:28:02.042Z,33.56
2023-04-28T16:30:28.689Z,33.26
2023-04-28T16:32:58.470Z,33.37
2023-04-28T16:35:25.549Z,33.13
2023-04-28T16:37:52.148Z,33.66
2023-04-28T16:40:18.895Z,33.66
2023-04-28T16:42:46.215Z,33.85
2023-04-28T16:45:13.089Z,33.80
2023-04-28T16:47:43.478Z,33.61
2023-04-28T16:50:10.851Z,33.26
2023-04-28T16:52:37.561Z,33.51
2023-04-28T16:55:06.996Z,33.96
2023-04-28T16:57:36.071Z,33.80
2023-04-28T17:00:05.078Z,34.16
2023-04-28T17:02:33.380Z,33.75
2023-04-28T17:05:00.379Z,33.77
2023-04-28T17:07:29.560Z,33.83
2023-04-28T17:09:58.696Z,33.62
2023-04-28T17:12:29.756Z,33.55
2023-04-28T17:14:56.366Z,33.73
2023-04-28T17:17:25.925Z,33.74
2023-04-28T17:19:58.820Z,34.02
2023-04-28T17:22:27.481Z,33.76
2023-04-28T17:24:57.475Z,34.55
2023-04-28T17:27:24.540Z,34.22
2023-04-28T17:29:52.071Z,34.69
2023-04-28T17:32:22.315Z,34.25
2023-04-28T17:34:51.459Z,34.68
2023-04-28T17:37:18.028Z,34.83
2023-04-28T17:39:44.603Z,34.79
2023-04-28T17:42:11.412Z,34.35
2023-04-28T17:44:40.849Z,34.17
2023-04-28T17:47:07.864Z,34.47
2023-04-28T17:49:34.456Z,34.62
2023-04-28T17:52:04.328Z,34.86
2023-04-28T17:54:32.295Z,34.61
2023-04-28T17:56:58.872Z,34.39
2023-04-28T17:59:25.625Z,34.29
2023-04-28T18:01:56.359Z,34.63
2023-04-28T18:04:25.972Z,34.54
2023-04-28T18:06:52.960Z,34.78
2023-04-28T18:09:21.978Z,35.05
2023-04-28T18:11:48.584Z,34.82
2023-04-28T18:14:18.479Z,35.29
2023-04-28T18:16:45.254Z,35.26
2023-04-28T18:19:12.077Z,35.75
2023-04-28T18:21:38.861Z,35.84
2023-04-28T18:24:05.456Z,36.03
2023-04-28T18:26:32.109Z,36.84
2023-04-28T18:28:58.660Z,37.67
2023-04-28T18:31:27.782Z,37.60
2023-04-28T18:33:55.283Z,37.82
2023-04-28T18:36:26.534Z,37.77
2023-04-28T18:38:56.438Z,37.90
2023-04-28T18:41:23.866Z,37.87
2023-04-28T18:43:50.516Z,38.19
2023-04-28T18:46:17.456Z,38.49
2023-04-28T18:48:46.302Z,39.17
2023-04-28T18:51:13.662Z,39.47
2023-04-28T18:53:42.659Z,39.61
2023-04-28T18:56:09.250Z,39.90
2023-04-28T18:58:41.725Z,40.40
2023-04-28T19:01:20.105Z,40.62
2023-04-28T19:03:52.631Z,39.79
2023-04-28T19:06:19.906Z,40.03
2023-04-28T19:08:46.493Z,40.55
2023-04-28T19:11:13.166Z,40.29
2023-04-28T19:13:40.075Z,40.68
2023-04-28T19:16:09.061Z,41.13
2023-04-28T19:18:39.621Z,41.15
2023-04-28T19:21:06.268Z,41.47
2023-04-28T19:23:32.935Z,41.63
2023-04-28T19:26:00.029Z,41.64
2023-04-28T19:28:29.896Z,42.13
2023-04-28T19:30:59.356Z,44.80
2023-04-28T19:33:28.232Z,45.14
2023-04-28T19:35:58.484Z,43.69
2023-04-28T19:38:25.416Z,44.63
2023-04-28T19:41:01.151Z,44.83
2023-04-28T19:43:28.178Z,44.68
2023-04-28T19:45:57.421Z,44.56
2023-04-28T19:48:24.481Z,44.43
2023-04-28T19:50:51.254Z,45.01
2023-04-28T19:53:20.321Z,46.24
2023-04-28T19:55:47.030Z,47.23
2023-04-28T19:58:16.354Z,48.29
2023-04-28T20:00:43.210Z,48.34
2023-04-28T20:03:10.289Z,50.51
2023-04-28T20:05:39.626Z,49.23
2023-04-28T20:08:06.583Z,49.03
2023-04-28T20:10:33.612Z,49.13
2023-04-28T20:13:02.988Z,51.24
2023-04-28T20:15:29.568Z,53.55
2023-04-28T20:17:56.240Z,54.40
2023-04-28T20:20:26.091Z,54.36
2023-04-28T20:22:52.663Z,52.24
2023-04-28T20:25:22.809Z,52.37
2023-04-28T20:27:49.624Z,52.68
2023-04-28T20:30:16.277Z,54.64
2023-04-28T20:32:43.260Z,54.65
2023-04-28T20:35:09.979Z,52.70
2023-04-28T20:37:36.565Z,52.84
2023-04-28T20:40:03.384Z,53.43
2023-04-28T20:42:30.008Z,53.28
2023-04-28T20:44:59.572Z,53.42
2023-04-28T20:47:26.170Z,53.36
2023-04-28T20:49:55.230Z,53.88
2023-04-28T20:52:24.319Z,53.76
2023-04-28T20:54:52.177Z,53.24
2023-04-28T20:57:18.833Z,53.19
2023-04-28T20:59:45.950Z,52.56
2023-04-28T21:02:12.615Z,52.69
2023-04-28T21:04:42.170Z,53.38
2023-04-28T21:07:08.726Z,52.79
2023-04-28T21:09:42.697Z,53.17
2023-04-28T21:12:10.173Z,53.42
2023-04-28T21:14:36.910Z,53.90
2023-04-28T21:17:03.870Z,53.64
2023-04-28T21:19:33.653Z,54.13
2023-04-28T21:22:02.993Z,54.10
2023-04-28T21:24:29.676Z,54.20
2023-04-28T21:26:56.313Z,54.03
2023-04-28T21:29:22.943Z,55.15
2023-04-28T21:31:49.671Z,55.38
2023-04-28T21:34:16.455Z,55.43
2023-04-28T21:36:45.789Z,56.01
2023-04-28T21:39:17.530Z,55.83
2023-04-28T21:41:44.731Z,54.97
2023-04-28T21:44:11.542Z,54.85
2023-04-28T21:46:40.752Z,55.99
2023-04-28T21:49:07.757Z,54.39
2023-04-28T21:51:42.225Z,54.93
2023-04-28T21:54:11.382Z,54.64
2023-04-28T21:56:38.034Z,56.00
2023-04-28T21:59:06.940Z,55.77
2023-04-28T22:01:38.619Z,55.74
2023-04-28T22:04:08.783Z,56.55
2023-04-28T22:06:35.831Z,56.87
2023-04-28T22:09:02.674Z,56.83
2023-04-28T22:11:31.618Z,57.10
2023-04-28T22:14:01.228Z,57.10
2023-04-28T22:16:28.269Z,57.30
2023-04-28T22:18:54.943Z,57.36
2023-04-28T22:21:21.984Z,57.82
2023-04-28T22:23:48.660Z,57.76
2023-04-28T22:26:27.494Z,57.73
2023-04-28T22:28:54.833Z,57.71
2023-04-28T22:31:21.541Z,57.75
2023-04-28T22:33:48.148Z,57.94
2023-04-28T22:36:20.776Z,57.85
2023-04-28T22:38:49.711Z,58.30
2023-04-28T22:41:16.360Z,58.83
2023-04-28T22:43:45.292Z,60.63
2023-04-28T22:46:12.117Z,61.90
2023-04-28T22:48:38.790Z,61.20
2023-04-28T22:51:05.472Z,61.33
2023-04-28T22:53:32.120Z,61.26
2023-04-28T22:56:04.041Z,60.87
2023-04-28T22:58:32.995Z,60.58
2023-04-28T23:01:04.344Z,60.30
2023-04-28T23:03:31.149Z,60.19
2023-04-28T23:05:57.910Z,60.57
2023-04-28T23:08:24.542Z,60.60
2023-04-28T23:10:51.201Z,60.18
2023-04-28T23:13:20.438Z,59.84
2023-04-28T23:15:47.460Z,59.33
2023-04-28T23:18:16.391Z,59.94
2023-04-28T23:20:54.038Z,59.78
2023-04-28T23:23:21.232Z,60.11
2023-04-28T23:25:48.195Z,60.31
2023-04-28T23:28:14.819Z,60.98
2023-04-28T23:30:41.395Z,60.77
2023-04-28T23:33:08.100Z,61.07
2023-04-28T23:35:34.659Z,61.35
2023-04-28T23:38:01.630Z,61.50
2023-04-28T23:40:28.219Z,61.16
2023-04-28T23:42:54.802Z,61.04
2023-04-28T23:45:21.403Z,61.18
2023-04-28T23:47:53.507Z,61.99
2023-04-28T23:50:22.559Z,62.03
2023-04-28T23:52:49.234Z,62.19
2023-04-28T23:55:18.832Z,62.04
2023-04-28T23:57:45.578Z,62.54
